Time;durP1;ratioP1;P1;durP2;ratioP2;P2;SDS_P1;SDS_P2;PMS_P1;PMS_P2;Temp;Humidity;BMP_temperature;BMP_pressure;BME280_temperature;BME280_humidity;BME280_pressure;Samples;Min_cycle;Max_cycle;Signal;HPM_P1;HPM_P2
2022/10/29 00:02:29;;;;;;;4.35;3.30;;;;;;;8.38;84.91;101321.88;10413656;28;20037;-67
2022/10/29 00:07:30;;;;;;;5.13;3.75;;;;;;;8.17;84.80;101286.59;10413683;28;20430;-68
2022/10/29 00:12:31;;;;;;;6.25;3.40;;;;;;;7.89;84.60;101243.06;10413297;28;20052;-67
2022/10/29 00:17:33;;;;;;;5.63;3.63;;;;;;;8.21;85.04;101314.47;10413222;28;20425;-68
2022/10/29 00:22:34;;;;;;;4.93;3.35;;;;;;;8.19;84.80;101303.16;10403452;28;20044;-67
2022/10/29 00:27:35;;;;;;;6.03;3.97;;;;;;;8.18;85.48;101291.72;10372168;28;20046;-67
2022/10/29 00:32:35;;;;;;;5.70;4.05;;;;;;;8.17;86.11;101327.13;10408972;28;20532;-68
2022/10/29 00:37:36;;;;;;;6.25;4.40;;;;;;;7.60;86.41;101242.84;10412466;28;20095;-68
2022/10/29 00:42:37;;;;;;;4.80;3.80;;;;;;;8.03;86.71;101324.78;10412486;28;20037;-67
2022/10/29 00:47:39;;;;;;;6.18;3.97;;;;;;;8.05;86.61;101337.88;10407887;28;20042;-68
2022/10/29 00:52:44;;;;;;;5.15;3.83;;;;;;;8.02;86.35;101344.28;10371556;28;20064;-67
2022/10/29 00:57:49;;;;;;;5.50;3.58;;;;;;;7.99;85.38;101344.53;10372456;28;20045;-67
2022/10/29 01:02:50;;;;;;;5.80;3.90;;;;;;;8.03;85.27;101347.75;10371791;28;20038;-68
2022/10/29 01:07:51;;;;;;;4.90;3.60;;;;;;;8.02;84.74;101341.63;10372334;28;20449;-67
2022/10/29 01:13:09;;;;;;;5.15;3.70;;;;;;;8.02;84.73;101341.63;10371561;28;20647;-67
2022/10/29 01:18:32;;;;;;;5.53;3.95;;;;;;;8.05;84.80;101351.09;10371395;28;20498;-67
2022/10/29 01:23:55;;;;;;;4.87;3.90;;;;;;;7.49;84.87;101275.47;10386020;28;20049;-67
2022/10/29 01:29:09;;;;;;;6.40;3.88;;;;;;;7.72;85.69;101348.47;10371821;28;20886;-67
2022/10/29 01:34:41;;;;;;;5.80;4.30;;;;;;;7.78;86.02;101365.66;10371047;28;20062;-68
2022/10/29 01:39:44;;;;;;;5.88;4.18;;;;;;;7.74;85.51;101372.13;10370798;28;20510;-67
2022/10/29 01:44:53;;;;;;;7.78;4.55;;;;;;;7.23;86.40;101288.97;10370633;28;20499;-67
2022/10/29 01:50:00;;;;;;;6.28;4.65;;;;;;;7.57;86.16;101341.78;10371281;28;20056;-67
2022/10/29 01:55:02;;;;;;;6.63;4.47;;;;;;;7.75;85.72;101364.09;10375803;28;20117;-67
2022/10/29 02:00:12;;;;;;;6.53;4.68;;;;;;;7.67;86.21;101355.94;10378453;28;20044;-68
2022/10/29 02:05:15;;;;;;;5.78;4.35;;;;;;;7.80;85.76;101371.63;10377842;28;20092;-67
2022/10/29 02:10:37;;;;;;;8.55;4.35;;;;;;;7.86;85.99;101373.78;10377740;28;20508;-68
2022/10/29 02:15:44;;;;;;;6.72;4.80;;;;;;;7.85;86.02;101376.56;10376691;28;20100;-67
2022/10/29 02:20:45;;;;;;;6.90;4.38;;;;;;;7.34;85.63;101292.56;10376905;28;20057;-67
2022/10/29 02:25:46;;;;;;;6.35;4.13;;;;;;;7.25;85.52;101271.19;10377729;28;20124;-67
2022/10/29 02:30:47;;;;;;;8.52;4.63;;;;;;;7.85;85.77;101371.28;10376477;28;20136;-67
2022/10/29 02:35:47;;;;;;;7.68;4.55;;;;;;;7.89;85.50;101385.91;10376657;28;20053;-67
2022/10/29 02:40:48;;;;;;;7.40;4.80;;;;;;;7.86;85.56;101380.88;10415058;28;20471;-68
2022/10/29 02:45:49;;;;;;;7.10;5.00;;;;;;;7.88;85.53;101381.59;10417281;28;20045;-66
2022/10/29 02:50:50;;;;;;;6.35;4.40;;;;;;;7.52;85.35;101339.50;10416808;28;20068;-66
2022/10/29 02:55:51;;;;;;;6.10;4.38;;;;;;;7.84;85.47;101403.97;10416634;28;20038;-66
2022/10/29 03:00:52;;;;;;;6.97;5.28;;;;;;;7.63;85.29;101357.16;10416515;28;20091;-66
2022/10/29 03:05:52;;;;;;;8.60;5.07;;;;;;;7.84;85.35;101393.38;10417209;28;20064;-66
2022/10/29 03:10:56;;;;;;;8.00;5.22;;;;;;;7.40;85.26;101321.97;10416017;28;20068;-66
2022/10/29 03:15:57;;;;;;;9.27;5.33;;;;;;;7.66;84.97;101364.84;10415782;28;20038;-66
2022/10/29 03:20:57;;;;;;;8.43;5.40;;;;;;;7.77;84.88;101399.16;10415855;28;20757;-66
2022/10/29 03:25:58;;;;;;;8.63;5.80;;;;;;;7.71;84.82;101389.09;10414653;28;20513;-67
2022/10/29 03:30:59;;;;;;;9.57;6.00;;;;;;;7.65;84.69;101379.00;10416231;28;20060;-66
2022/10/29 03:36:02;;;;;;;10.10;5.65;;;;;;;7.75;84.60;101397.63;10414545;28;20111;-66
2022/10/29 03:41:09;;;;;;;8.82;6.18;;;;;;;7.72;84.51;101396.09;10414478;28;20045;-66
2022/10/29 03:46:09;;;;;;;8.50;6.05;;;;;;;7.72;83.92;101403.19;10414215;28;20033;-66
2022/10/29 03:51:10;;;;;;;9.98;6.50;;;;;;;7.61;84.30;101396.09;10414249;28;20041;-66
2022/10/29 03:56:11;;;;;;;10.98;6.90;;;;;;;7.61;84.14;101417.25;10414074;28;20103;-66
2022/10/29 04:01:12;;;;;;;11.52;6.53;;;;;;;7.51;84.25;101421.59;10414179;28;20073;-66
2022/10/29 04:06:14;;;;;;;8.52;6.05;;;;;;;7.29;84.09;101396.84;10413994;28;20037;-66
2022/10/29 04:11:15;;;;;;;10.93;7.32;;;;;;;7.49;84.02;101426.16;10413400;28;20044;-67
2022/10/29 04:16:16;;;;;;;11.25;6.55;;;;;;;7.67;84.40;101421.22;10411980;28;20052;-66
2022/10/29 04:21:17;;;;;;;11.70;6.78;;;;;;;7.85;83.92;101403.03;10408426;28;20091;-66
2022/10/29 04:26:18;;;;;;;11.15;6.82;;;;;;;8.21;83.52;101436.22;10398619;28;20045;-66
2022/10/29 04:31:19;;;;;;;10.27;6.70;;;;;;;8.17;83.46;101440.94;10412648;28;20057;-67
2022/10/29 04:36:20;;;;;;;9.82;6.53;;;;;;;8.16;83.28;101436.59;10413289;28;20076;-66
2022/10/29 04:41:21;;;;;;;11.82;6.45;;;;;;;8.34;82.73;101417.50;10410410;28;20072;-67
2022/10/29 04:46:22;;;;;;;8.88;6.40;;;;;;;8.81;81.65;101452.47;10402194;28;20092;-66
2022/10/29 04:51:25;;;;;;;10.15;6.28;;;;;;;8.78;80.61;101440.31;10381047;28;20049;-66
2022/10/29 04:56:28;;;;;;;9.60;6.75;;;;;;;7.93;80.80;101324.72;10413467;28;20401;-67
2022/10/29 05:01:29;;;;;;;10.77;6.45;;;;;;;8.58;81.49;101457.88;10412624;28;20115;-66
2022/10/29 05:06:30;;;;;;;11.88;6.75;;;;;;;8.10;81.61;101396.56;10412385;28;20065;-67
2022/10/29 05:11:30;;;;;;;9.18;6.55;;;;;;;8.52;81.78;101468.97;10411895;28;20044;-66
2022/10/29 05:16:31;;;;;;;9.57;6.72;;;;;;;8.10;81.87;101394.75;10411331;28;20045;-67
2022/10/29 05:21:33;;;;;;;11.13;7.13;;;;;;;8.74;81.89;101467.22;10412298;28;20041;-66
2022/10/29 05:26:33;;;;;;;12.82;7.20;;;;;;;8.50;81.72;101433.84;10414111;28;20053;-66
2022/10/29 05:31:34;;;;;;;15.57;7.82;;;;;;;8.51;81.87;101402.91;10412417;28;20080;-68
2022/10/29 05:36:35;;;;;;;11.82;6.78;;;;;;;9.00;81.56;101479.06;10380490;28;20057;-68
2022/10/29 05:41:36;;;;;;;12.82;8.65;;;;;;;8.97;80.64;101463.44;10380217;28;20112;-67
2022/10/29 05:46:36;;;;;;;10.65;7.03;;;;;;;9.13;80.51;101478.91;10419147;28;20461;-67
2022/10/29 05:51:37;;;;;;;11.32;6.70;;;;;;;9.18;80.34;101466.06;10419089;28;20037;-68
2022/10/29 05:56:38;;;;;;;10.05;6.38;;;;;;;9.47;79.50;101476.81;10411712;28;20132;-68
2022/10/29 06:01:39;;;;;;;14.18;6.72;;;;;;;9.56;78.79;101469.88;10416444;28;20038;-69
2022/10/29 06:06:40;;;;;;;10.07;6.50;;;;;;;9.67;78.81;101459.19;10411069;28;20046;-68
2022/10/29 06:11:40;;;;;;;16.08;6.43;;;;;;;9.45;77.98;101382.44;10413554;28;20094;-68
2022/10/29 06:16:41;;;;;;;9.35;6.22;;;;;;;10.48;76.17;101435.97;10415791;28;20053;-68
2022/10/29 06:21:42;;;;;;;9.82;5.70;;;;;;;10.85;75.03;101443.19;10403460;28;20042;-69
2022/10/29 06:26:43;;;;;;;9.63;5.85;;;;;;;11.07;73.83;101403.97;10400243;28;20065;-67
2022/10/29 06:31:43;;;;;;;10.00;5.20;;;;;;;11.57;73.68;101438.19;10402285;28;20057;-68
2022/10/29 06:36:44;;;;;;;7.25;5.32;;;;;;;11.47;72.00;101429.44;10413080;28;20655;-67
2022/10/29 06:41:45;;;;;;;6.00;4.80;;;;;;;11.60;71.38;101433.41;10411938;28;20516;-68
2022/10/29 06:46:46;;;;;;;6.00;4.80;;;;;;;10.71;70.33;101277.06;10394722;28;20049;-68
2022/10/29 06:51:47;;;;;;;7.60;4.93;;;;;;;11.12;69.77;101345.88;10395829;28;20052;-66
2022/10/29 06:56:47;;;;;;;8.70;4.53;;;;;;;11.87;68.98;101429.94;10413665;28;20488;-67
2022/10/29 07:01:48;;;;;;;6.00;4.65;;;;;;;11.27;68.73;101335.56;10414819;28;20041;-67
2022/10/29 07:06:49;;;;;;;5.80;3.75;;;;;;;11.79;68.53;101419.19;10389277;28;20046;-66
2022/10/29 07:11:50;;;;;;;5.32;3.75;;;;;;;11.36;67.17;101345.31;10407713;28;20041;-68
2022/10/29 07:16:52;;;;;;;5.28;4.25;;;;;;;11.65;66.69;101423.19;10413081;28;20485;-67
2022/10/29 07:21:53;;;;;;;8.23;4.00;;;;;;;10.77;67.24;101266.81;10411670;28;20037;-68
2022/10/29 07:26:53;;;;;;;4.78;3.50;;;;;;;11.77;67.14;101429.13;10413715;28;20053;-68
2022/10/29 07:31:54;;;;;;;6.38;3.95;;;;;;;11.97;66.47;101426.41;10390404;28;20092;-65
2022/10/29 07:36:55;;;;;;;6.57;4.15;;;;;;;11.54;67.68;101433.19;10379967;28;20045;-66
2022/10/29 07:41:56;;;;;;;4.45;3.92;;;;;;;10.95;69.30;101436.06;10414956;28;20401;-67
2022/10/29 07:46:57;;;;;;;5.53;4.28;;;;;;;10.45;69.74;101369.84;10414146;28;20087;-68
2022/10/29 07:51:58;;;;;;;8.85;4.15;;;;;;;10.60;69.21;101375.56;10429329;28;20038;-66
2022/10/29 07:56:58;;;;;;;10.02;4.18;;;;;;;11.16;68.67;101438.53;10411974;28;20049;-67
2022/10/29 08:01:59;;;;;;;5.05;3.72;;;;;;;11.08;67.72;101341.84;10413738;28;20381;-67
2022/10/29 08:07:00;;;;;;;6.05;4.20;;;;;;;11.36;67.51;101430.44;10413727;28;20143;-66
2022/10/29 08:12:03;;;;;;;4.80;3.63;;;;;;;11.39;67.89;101417.69;10414482;28;20053;-67
2022/10/29 08:17:04;;;;;;;5.93;3.97;;;;;;;11.49;67.53;101419.50;10413151;28;20029;-67
2022/10/29 08:22:05;;;;;;;5.53;3.72;;;;;;;11.00;66.82;101323.13;10412885;28;20444;-67
2022/10/29 08:27:06;;;;;;;4.60;3.40;;;;;;;11.63;67.13;101411.00;10412319;28;20033;-69
2022/10/29 08:32:06;;;;;;;4.57;3.20;;;;;;;11.53;66.24;101341.88;10414046;28;20057;-68
2022/10/29 08:37:07;;;;;;;5.75;2.92;;;;;;;12.08;65.73;101397.72;10412463;28;20033;-68
2022/10/29 08:42:26;;;;;;;4.40;3.05;;;;;;;12.60;64.68;101399.63;10413037;28;20041;-68
2022/10/29 08:47:30;;;;;;;4.30;3.20;;;;;;;12.50;63.69;101364.22;10413000;28;20042;-66
2022/10/29 08:52:37;;;;;;;4.85;3.05;;;;;;;12.32;64.11;101396.22;10413478;28;20049;-67
2022/10/29 08:57:44;;;;;;;4.47;3.25;;;;;;;11.91;64.52;101371.91;10413326;28;20521;-68
2022/10/29 09:02:45;;;;;;;5.38;3.22;;;;;;;11.97;65.29;101381.97;10416756;28;20041;-68
2022/10/29 09:08:04;;;;;;;7.13;3.45;;;;;;;12.13;63.99;101301.34;10420285;28;20076;-66
2022/10/29 09:13:20;;;;;;;5.50;3.03;;;;;;;12.85;63.10;101371.31;10415190;28;20045;-68
2022/10/29 09:18:49;;;;;;;6.85;3.20;;;;;;;12.59;63.18;101370.47;10401330;28;20044;-68
2022/10/29 09:24:08;;;;;;;8.80;4.60;;;;;;;12.45;62.61;101306.09;10391447;28;20085;-68
2022/10/29 09:29:32;;;;;;;6.55;3.33;;;;;;;13.25;62.50;101372.53;10396780;28;20050;-69
2022/10/29 09:34:46;;;;;;;4.55;3.03;;;;;;;13.39;60.97;101365.75;10416969;28;20088;-67
2022/10/29 09:39:47;;;;;;;6.55;3.25;;;;;;;13.00;62.83;101343.03;10413000;28;20517;-68
2022/10/29 09:44:56;;;;;;;8.07;2.90;;;;;;;13.31;62.11;101341.69;10384067;28;20145;-69
2022/10/29 09:50:44;;;;;;;4.18;2.80;;;;;;;13.61;60.21;101350.97;10392543;28;20042;-67
2022/10/29 09:55:52;;;;;;;6.10;2.78;;;;;;;13.47;60.26;101307.91;10377718;28;20077;-68
2022/10/29 10:00:56;;;;;;;4.15;2.85;;;;;;;13.23;61.10;101319.31;10378857;28;20042;-68
2022/10/29 10:06:05;;;;;;;6.20;3.93;;;;;;;12.79;61.24;101255.44;10377894;28;20567;-67
2022/10/29 10:11:08;;;;;;;4.10;2.80;;;;;;;13.21;60.78;101291.13;10378457;28;20129;-69
2022/10/29 10:16:08;;;;;;;5.38;3.50;;;;;;;13.60;60.70;101323.44;10380789;28;20045;-68
2022/10/29 10:21:13;;;;;;;10.05;3.40;;;;;;;13.62;60.46;101309.94;10408414;28;20046;-69
2022/10/29 10:26:34;;;;;;;5.25;3.17;;;;;;;13.90;59.97;101313.97;10375984;28;20076;-69
2022/10/29 10:31:35;;;;;;;3.83;3.05;;;;;;;13.88;59.76;101320.47;10376351;28;20061;-69
2022/10/29 10:36:40;;;;;;;3.92;3.08;;;;;;;13.78;59.45;101315.28;10375503;28;20049;-69
2022/10/29 10:41:42;;;;;;;4.63;2.97;;;;;;;13.47;59.76;101278.53;10376070;28;20044;-69
2022/10/29 10:46:44;;;;;;;5.55;3.13;;;;;;;12.99;59.24;101176.03;10376909;28;20521;-69
2022/10/29 10:51:53;;;;;;;9.07;3.30;;;;;;;13.59;59.57;101312.94;10376132;28;20044;-69
2022/10/29 10:57:05;;;;;;;4.72;3.28;;;;;;;13.60;59.01;101302.06;10406760;28;20068;-70
2022/10/29 11:02:18;;;;;;;4.38;3.78;;;;;;;13.57;59.07;101294.41;10412259;28;20436;-68
2022/10/29 11:07:20;;;;;;;5.30;3.10;;;;;;;13.70;59.28;101297.44;10415420;28;20111;-68
2022/10/29 11:12:52;;;;;;;3.97;2.80;;;;;;;13.80;58.71;101291.09;10429648;28;20045;-68
2022/10/29 11:17:59;;;;;;;6.75;2.80;;;;;;;13.51;59.56;101260.34;10401180;28;20438;-71
2022/10/29 11:23:18;;;;;;;5.15;2.75;;;;;;;13.65;59.01;101290.91;10408369;28;20506;-70
2022/10/29 11:28:21;;;;;;;4.75;2.60;;;;;;;13.36;59.92;101296.69;10415867;28;20132;-70
2022/10/29 11:33:43;;;;;;;5.17;2.87;;;;;;;12.48;59.94;101145.03;10412163;28;20088;-70
2022/10/29 11:39:07;;;;;;;5.68;3.08;;;;;;;13.13;59.70;101270.59;10382915;28;20057;-68
2022/10/29 11:44:13;;;;;;;5.03;2.70;;;;;;;13.19;60.09;101293.97;10373496;28;20042;-70
2022/10/29 11:49:27;;;;;;;6.32;2.80;;;;;;;13.22;60.39;101301.63;10373369;28;20049;-70
2022/10/29 11:54:42;;;;;;;10.38;3.50;;;;;;;13.03;60.30;101305.38;10394894;28;20109;-70
2022/10/29 12:00:01;;;;;;;9.02;3.50;;;;;;;13.02;60.66;101308.22;10410777;28;20077;-70
2022/10/29 12:05:07;;;;;;;5.68;3.30;;;;;;;12.10;61.20;101168.50;10391825;28;20041;-70
2022/10/29 12:10:32;;;;;;;6.25;3.20;;;;;;;12.87;60.62;101296.50;10384556;28;20504;-71
2022/10/29 12:15:51;;;;;;;8.77;2.90;;;;;;;12.90;61.22;101309.50;10388528;28;20037;-69
2022/10/29 12:21:00;;;;;;;6.88;3.50;;;;;;;12.82;61.11;101298.78;10394091;28;20041;-69
2022/10/29 12:26:13;;;;;;;10.70;3.55;;;;;;;12.83;61.48;101311.13;10394724;28;20037;-70
2022/10/29 12:31:22;;;;;;;5.70;3.70;;;;;;;12.30;61.46;101239.22;10389713;28;20145;-69
2022/10/29 12:36:31;;;;;;;7.53;4.63;;;;;;;12.75;61.66;101320.75;10394236;28;20057;-70
2022/10/29 12:41:42;;;;;;;8.18;4.80;;;;;;;12.54;61.47;101288.31;10384957;28;20041;-71
2022/10/29 12:46:52;;;;;;;28.02;16.38;;;;;;;12.56;61.52;101297.84;10398356;28;20096;-69
2022/10/29 12:51:56;;;;;;;27.67;9.73;;;;;;;12.52;61.83;101316.94;10384255;28;20033;-68
2022/10/29 12:57:29;;;;;;;21.50;9.80;;;;;;;12.58;62.45;101326.97;10381650;28;20087;-68
2022/10/29 13:02:35;;;;;;;37.03;14.50;;;;;;;12.46;62.82;101318.41;10384410;28;20054;-69
2022/10/29 13:07:46;;;;;;;13.43;7.82;;;;;;;12.32;62.60;101329.63;10383393;28;20072;-68
2022/10/29 13:13:15;;;;;;;16.60;9.13;;;;;;;11.63;62.82;101243.31;10386159;28;20069;-68
2022/10/29 13:18:31;;;;;;;25.25;9.05;;;;;;;11.80;63.90;101326.84;10378010;28;20049;-68
2022/10/29 13:23:36;;;;;;;17.42;7.65;;;;;;;11.41;64.37;101321.78;10411717;28;20497;-68
2022/10/29 13:28:37;;;;;;;9.65;7.13;;;;;;;11.34;64.54;101326.88;10411658;28;20068;-68
2022/10/29 13:33:37;;;;;;;20.65;6.40;;;;;;;10.70;65.08;101248.81;10410577;28;20163;-68
2022/10/29 13:38:48;;;;;;;27.83;7.43;;;;;;;10.54;65.74;101274.34;10411610;28;20124;-68
2022/10/29 13:44:03;;;;;;;13.50;7.05;;;;;;;10.57;66.98;101311.25;10412143;28;20048;-68
2022/10/29 13:49:16;;;;;;;10.60;6.25;;;;;;;10.35;67.50;101315.91;10408478;28;20045;-70
2022/10/29 13:54:36;;;;;;;17.02;6.80;;;;;;;9.60;68.57;101216.63;10425159;28;20049;-69
2022/10/29 14:00:03;;;;;;;12.43;5.85;;;;;;;10.12;69.33;101336.59;10423637;28;20036;-69
2022/10/29 14:05:11;;;;;;;11.18;5.80;;;;;;;9.79;69.30;101321.94;10406497;28;20114;-67
2022/10/29 14:10:29;;;;;;;19.73;9.27;;;;;;;9.20;70.92;101253.88;10391851;28;20481;-68
2022/10/29 14:15:30;;;;;;;46.63;14.50;;;;;;;8.63;70.57;101205.88;10417596;28;20124;-68
2022/10/29 14:20:31;;;;;;;57.35;25.30;;;;;;;9.38;71.60;101355.63;10410151;28;20044;-70
2022/10/29 14:25:37;;;;;;;80.40;34.63;;;;;;;8.77;72.69;101286.81;10395469;28;20045;-70
2022/10/29 14:30:37;;;;;;;25.00;14.80;;;;;;;8.97;72.46;101336.22;10389174;28;20064;-68
2022/10/29 14:35:38;;;;;;;18.88;10.68;;;;;;;8.37;72.75;101263.69;10393973;28;20524;-72
2022/10/29 14:40:43;;;;;;;12.85;8.70;;;;;;;8.89;72.92;101359.94;10393706;28;20124;-69
2022/10/29 14:45:44;;;;;;;15.35;9.05;;;;;;;8.32;73.01;101284.44;10391607;28;20038;-69
2022/10/29 14:50:55;;;;;;;31.10;17.60;;;;;;;8.62;75.47;101366.59;10402902;28;20042;-70
2022/10/29 14:55:58;;;;;;;25.55;14.43;;;;;;;8.50;75.04;101372.13;10374391;28;20136;-71
2022/10/29 15:01:02;;;;;;;24.52;13.18;;;;;;;7.96;75.82;101318.34;10378073;28;20041;-71
2022/10/29 15:06:14;;;;;;;48.53;23.25;;;;;;;8.10;77.91;101368.28;10415370;28;20077;-71
2022/10/29 15:11:33;;;;;;;96.70;42.25;;;;;;;7.93;79.51;101376.78;10415592;28;20049;-71
2022/10/29 15:16:34;;;;;;;55.42;26.15;;;;;;;7.73;77.68;101371.31;10375252;28;20557;-70
2022/10/29 15:21:38;;;;;;;52.67;23.23;;;;;;;7.53;78.55;101364.13;10378354;28;20079;-71
2022/10/29 15:26:49;;;;;;;61.95;25.67;;;;;;;7.39;80.64;101381.13;10408698;28;20045;-70
2022/10/29 15:31:54;;;;;;;60.78;29.55;;;;;;;7.08;80.49;101367.66;10410848;28;20060;-70
2022/10/29 15:36:56;;;;;;;45.85;20.45;;;;;;;7.04;80.26;101365.38;10398877;28;20410;-70
2022/10/29 15:41:59;;;;;;;38.67;21.52;;;;;;;6.47;81.14;101308.22;10408771;28;20410;-71
2022/10/29 15:47:17;;;;;;;50.97;19.50;;;;;;;6.58;82.25;101339.88;10385655;28;20075;-71
2022/10/29 15:52:19;;;;;;;41.25;21.25;;;;;;;6.68;81.23;101383.13;10391512;28;20052;-72
2022/10/29 15:57:20;;;;;;;37.40;20.30;;;;;;;6.51;81.39;101376.47;10379372;28;20552;-72
2022/10/29 16:02:20;;;;;;;48.33;20.75;;;;;;;6.12;81.61;101317.00;10398659;28;20052;-69
2022/10/29 16:07:21;;;;;;;33.28;18.83;;;;;;;6.38;82.62;101381.84;10411566;28;20075;-69
2022/10/29 16:12:23;;;;;;;38.40;19.98;;;;;;;6.19;83.67;101368.34;10410999;28;20069;-71
2022/10/29 16:17:23;;;;;;;35.97;21.10;;;;;;;6.07;83.20;101367.47;10426136;28;20038;-69
2022/10/29 16:22:29;;;;;;;29.38;16.05;;;;;;;6.10;84.89;101371.66;10411268;28;20035;-68
2022/10/29 16:27:30;;;;;;;27.90;13.68;;;;;;;5.66;84.12;101347.59;10407990;28;20083;-68
2022/10/29 16:32:30;;;;;;;31.80;13.35;;;;;;;5.52;84.58;101315.28;10411049;28;20085;-70
2022/10/29 16:37:31;;;;;;;29.38;14.18;;;;;;;5.68;84.97;101360.63;10411313;28;20132;-69
2022/10/29 16:42:36;;;;;;;47.65;21.25;;;;;;;5.61;85.57;101352.34;10426983;28;20056;-68
2022/10/29 16:47:37;;;;;;;48.42;20.88;;;;;;;5.15;84.78;101287.16;10392702;28;20041;-68
2022/10/29 16:52:38;;;;;;;21.23;12.30;;;;;;;5.51;84.73;101363.66;10400765;28;20532;-69
2022/10/29 16:57:39;;;;;;;30.35;11.00;;;;;;;5.02;85.43;101296.88;10409473;28;20044;-67
2022/10/29 17:02:43;;;;;;;29.30;11.25;;;;;;;5.36;86.16;101361.19;10407614;28;20038;-67
2022/10/29 17:07:44;;;;;;;19.37;10.60;;;;;;;5.35;86.05;101364.75;10404613;28;20045;-67
2022/10/29 17:12:45;;;;;;;24.23;11.73;;;;;;;5.27;86.82;101351.28;10406882;28;20395;-68
2022/10/29 17:17:45;;;;;;;19.48;10.40;;;;;;;5.12;86.38;101328.69;10443957;28;20061;-68
2022/10/29 17:22:46;;;;;;;18.25;12.13;;;;;;;5.23;86.46;101362.97;10433727;28;20540;-69
2022/10/29 17:27:47;;;;;;;12.85;8.52;;;;;;;5.19;86.15;101366.78;10427717;28;20041;-68
2022/10/29 17:32:48;;;;;;;20.52;10.50;;;;;;;4.56;86.26;101297.47;10440100;28;20060;-68
2022/10/29 17:37:49;;;;;;;34.05;11.38;;;;;;;4.24;85.99;101271.56;10441785;28;20041;-68
2022/10/29 17:42:49;;;;;;;34.22;15.80;;;;;;;4.37;86.90;101290.00;10433928;28;20094;-70
2022/10/29 17:47:57;;;;;;;42.47;18.92;;;;;;;4.79;89.79;101369.56;10435809;28;20456;-68
2022/10/29 17:52:58;;;;;;;36.85;19.75;;;;;;;4.30;87.02;101276.38;10437120;28;20034;-68
2022/10/29 17:57:59;;;;;;;45.72;18.92;;;;;;;4.78;87.62;101355.53;10437517;28;20045;-68
2022/10/29 18:02:59;;;;;;;39.20;21.05;;;;;;;4.79;87.57;101356.41;10439926;28;20049;-67
2022/10/29 18:08:00;;;;;;;48.45;24.05;;;;;;;4.59;86.72;101355.13;10450349;28;20147;-68
2022/10/29 18:13:01;;;;;;;45.33;22.00;;;;;;;4.60;87.06;101356.81;10453010;28;20128;-68
2022/10/29 18:18:02;;;;;;;36.15;19.20;;;;;;;4.00;87.32;101268.78;10435296;28;20053;-68
2022/10/29 18:23:03;;;;;;;31.27;17.15;;;;;;;4.30;87.89;101330.78;10436316;28;20043;-68
2022/10/29 18:28:03;;;;;;;27.73;16.58;;;;;;;4.08;86.93;101345.38;10436643;28;20041;-69
2022/10/29 18:33:04;;;;;;;35.17;17.83;;;;;;;3.96;88.21;101319.06;10432206;28;20053;-68
2022/10/29 18:38:05;;;;;;;21.20;13.43;;;;;;;3.59;88.43;101248.75;10436713;28;20043;-69
2022/10/29 18:43:06;;;;;;;28.65;14.20;;;;;;;4.22;88.91;101359.38;10433626;28;20099;-69
2022/10/29 18:48:07;;;;;;;29.77;15.05;;;;;;;4.27;89.31;101342.34;10440620;28;20098;-68
2022/10/29 18:53:07;;;;;;;24.92;13.60;;;;;;;4.17;88.98;101332.56;10453257;28;20064;-68
2022/10/29 18:58:08;;;;;;;24.08;13.25;;;;;;;4.15;89.43;101344.97;10451755;28;20045;-68
2022/10/29 19:03:10;;;;;;;23.45;13.57;;;;;;;4.06;89.55;101328.00;10449062;28;20456;-68
2022/10/29 19:08:11;;;;;;;27.25;11.20;;;;;;;4.15;89.20;101331.81;10468669;28;20551;-67
2022/10/29 19:13:12;;;;;;;24.30;14.15;;;;;;;4.18;88.63;101332.47;10448483;28;20044;-68
2022/10/29 19:18:13;;;;;;;26.50;14.80;;;;;;;4.09;89.05;101277.84;10453118;28;20036;-67
2022/10/29 19:23:14;;;;;;;24.83;13.02;;;;;;;4.54;88.97;101312.50;10437597;28;20033;-66
2022/10/29 19:28:15;;;;;;;23.35;13.20;;;;;;;4.65;89.40;101301.25;10446205;28;20052;-67
2022/10/29 19:33:15;;;;;;;41.30;15.50;;;;;;;4.76;89.49;101306.63;10456140;28;20532;-67
2022/10/29 19:38:16;;;;;;;23.00;11.77;;;;;;;4.80;89.36;101287.00;10456712;28;20531;-67
2022/10/29 19:43:17;;;;;;;27.23;13.68;;;;;;;4.70;89.22;101289.44;10454379;28;20405;-67
2022/10/29 19:48:18;;;;;;;21.58;11.88;;;;;;;4.57;89.58;101299.97;10454121;28;20059;-68
2022/10/29 19:53:19;;;;;;;22.00;11.63;;;;;;;4.49;89.54;101302.31;10453483;28;20116;-67
2022/10/29 19:58:22;;;;;;;24.67;12.80;;;;;;;4.44;90.60;101287.78;10451512;28;20044;-68
2022/10/29 20:03:23;;;;;;;24.57;11.70;;;;;;;4.17;89.82;101227.38;10450931;28;20413;-68
2022/10/29 20:08:24;;;;;;;16.70;11.27;;;;;;;4.48;90.46;101300.59;10453663;28;20040;-69
2022/10/29 20:13:26;;;;;;;19.20;11.98;;;;;;;4.33;90.84;101299.03;10449632;28;20119;-69
2022/10/29 20:18:26;;;;;;;21.98;9.60;;;;;;;4.10;91.50;101256.72;10453378;28;20404;-69
2022/10/29 20:23:27;;;;;;;17.55;10.85;;;;;;;4.24;90.98;101291.75;10447825;28;20047;-68
2022/10/29 20:28:29;;;;;;;21.67;11.45;;;;;;;4.03;91.52;101239.66;10433737;28;20044;-68
2022/10/29 20:33:30;;;;;;;17.60;12.15;;;;;;;3.56;91.31;101199.03;10452987;28;20067;-67
2022/10/29 20:38:31;;;;;;;17.10;10.43;;;;;;;4.05;91.67;101307.94;10454179;28;20052;-67
2022/10/29 20:43:32;;;;;;;21.45;12.38;;;;;;;3.75;91.08;101242.47;10469277;28;20061;-69
2022/10/29 20:48:35;;;;;;;21.42;13.00;;;;;;;3.81;91.98;101276.22;10453082;28;20185;-67
2022/10/29 20:53:35;;;;;;;21.45;11.38;;;;;;;3.94;92.11;101286.78;10452555;28;20040;-67
2022/10/29 20:58:36;;;;;;;25.80;15.65;;;;;;;3.98;92.59;101259.31;10457660;28;20045;-67
2022/10/29 21:03:37;;;;;;;21.10;13.48;;;;;;;3.60;92.10;101184.75;10462053;28;20037;-68
2022/10/29 21:08:39;;;;;;;17.92;11.23;;;;;;;4.06;91.57;101251.75;10461673;28;20067;-67
2022/10/29 21:13:40;;;;;;;14.40;9.88;;;;;;;4.12;91.55;101252.19;10455028;28;20049;-67
2022/10/29 21:18:43;;;;;;;15.25;9.65;;;;;;;4.05;92.15;101221.16;10456290;28;20036;-67
2022/10/29 21:23:44;;;;;;;17.00;10.68;;;;;;;4.18;92.06;101234.31;10462001;28;20045;-67
2022/10/29 21:28:47;;;;;;;15.05;9.43;;;;;;;4.15;91.95;101242.41;10461205;28;20076;-67
2022/10/29 21:33:49;;;;;;;19.48;12.43;;;;;;;3.88;92.72;101222.31;10461027;28;20187;-67
2022/10/29 21:38:50;;;;;;;22.83;11.75;;;;;;;3.91;92.67;101227.34;10461244;28;20044;-67
2022/10/29 21:43:51;;;;;;;20.25;12.00;;;;;;;3.87;92.44;101208.31;10460477;28;20512;-67
2022/10/29 21:48:54;;;;;;;18.42;10.32;;;;;;;3.94;92.90;101207.91;10476617;28;20126;-67
2022/10/29 21:53:55;;;;;;;18.35;10.95;;;;;;;3.99;91.90;101209.28;10460700;28;20048;-67
2022/10/29 21:58:56;;;;;;;16.02;10.48;;;;;;;4.00;92.74;101213.56;10460416;28;20572;-67
2022/10/29 22:03:57;;;;;;;16.50;10.07;;;;;;;3.97;92.28;101216.41;10460233;28;20044;-67
2022/10/29 22:08:59;;;;;;;16.27;9.60;;;;;;;4.05;92.61;101219.38;10457903;28;20076;-68
2022/10/29 22:13:59;;;;;;;15.40;10.80;;;;;;;3.53;92.42;101130.94;10460942;28;20040;-67
2022/10/29 22:19:00;;;;;;;16.85;10.18;;;;;;;4.09;92.73;101214.75;10459832;28;20047;-67
2022/10/29 22:24:02;;;;;;;17.27;8.80;;;;;;;3.62;92.34;101127.69;10459401;28;20068;-67
2022/10/29 22:29:03;;;;;;;12.43;8.27;;;;;;;4.05;93.08;101200.97;10459089;28;20528;-67
2022/10/29 22:34:04;;;;;;;17.27;10.10;;;;;;;4.05;92.78;101193.09;10460113;28;20052;-67
2022/10/29 22:39:04;;;;;;;16.05;9.82;;;;;;;4.04;93.07;101190.56;10474444;28;20045;-67
2022/10/29 22:44:05;;;;;;;15.48;10.63;;;;;;;3.91;93.03;101161.63;10458109;28;20037;-67
2022/10/29 22:49:06;;;;;;;14.93;8.68;;;;;;;3.58;92.64;101113.06;10457798;28;20037;-67
2022/10/29 22:54:07;;;;;;;12.82;8.07;;;;;;;3.75;92.33;101153.97;10458820;28;20037;-67
2022/10/29 22:59:08;;;;;;;16.45;9.10;;;;;;;3.26;92.31;101085.50;10473642;28;20504;-67
2022/10/29 23:04:09;;;;;;;13.93;8.43;;;;;;;3.81;92.26;101173.72;10440299;28;20130;-67
2022/10/29 23:09:10;;;;;;;14.27;9.85;;;;;;;3.72;92.47;101169.09;10438021;28;20095;-67
2022/10/29 23:14:11;;;;;;;12.45;8.95;;;;;;;3.58;92.53;101147.22;10457884;28;20037;-67